Kailua Kona, HI (96745)

4:29 PM HST on February 11, 2016 (GMT -1000)
Keapu | | Change Station
CLOSE
Current Station
Personal Weather Station
Location: Hōlualoa, HI
Elevation: 1526 ft
Nearby Weather Stations
Active Advisory: High Surf Advisory

Elev 1526 ft 19.67 °N, 155.97 °W | Updated 5 minutes ago

Clear
Clear
72.5 °F
Feels Like 76 °F
N
0.0
Wind Variable Wind from WNW
Gusts 2.0 mph

Today
High -- | Low -- °F
--% Chance of Precip.
Yesterday
High -- | Low -- °F
Precip. -- in
Pressure 29.97 in
Visibility 10.0 miles
Clouds Clear
Heat Index 76 °F
Dew Point 60 °F
Humidity 65%
Rainfall 0.00 in
Snow Depth Not available.
6:55 AM 6:21 PM
Waxing Crescent, 16% visible
METAR PHKO 120153Z 24007KT 10SM CLR 26/16 A2997 RMK AO2 SLP148 T02610161
Pressure 29.97 in
Visibility 10.0 miles
Clouds Clear
Heat Index 76 °F
Dew Point 60 °F
Humidity 65%
Rainfall 0.00 in
Snow Depth Not available.
6:55 AM 6:21 PM
Waxing Crescent, 16% visible
METAR PHKO 120153Z 24007KT 10SM CLR 26/16 A2997 RMK AO2 SLP148 T02610161

10-Day Weather Forecast

Almanac

Astronomy

Feb. 11, 2016 Rise Set
Actual Time
Civil Twilight
Nautical Twilight
Astronomical Twilight
Moon
Length of Visible Light
Length of Day
Tomorrow will be .
, % of the Moon is Illuminated

Today's Extremes

State Highs State Lows

Community

WunderPhotos

Upload Photos

1,892,226 photos uploaded!

WunderBlog® & News

Nearby

Air Quality

  Air Quality AQ Index Pollutant
Not available.

Snow Depth

Station Depth Elevation

Earthquake Activity

City Distance Mag. Time & Date
Minimum magnitude displayed is 2.5.

Coastal Water Temperatures

Place Temperature

Stations

Nearby Weather Stations

Station Location Temp. Windchill Dew Point Humidity Wind Precip. Elev Updated Type
                   

Watches & Warnings

High Surf Advisory
Issued: 3:18 PM HST Feb. 11, 2016 – National Weather Service

... High surf advisory in effect until 6 am HST Friday...
... High surf warning is cancelled...

The National Weather Service in Honolulu has issued a high surf
advisory... which is in effect until 6 am HST Friday. The high
surf warning has been cancelled.

* Surf... along west facing shores of The Big Island... 6 to 10
feet. Surf is expected to diminish to below advisory levels on
Friday.

* Timing... through tonight.

* Impacts... moderate... expect strong breaking waves... shore
break... and strong longshore and rip currents making swimming
difficult and dangerous.

Precautionary/preparedness actions...

Beachgoers... swimmers... and surfers should heed all advice given
by ocean safety officials and exercise caution. Know your
limits... when in doubt... do not go out.